AirNav   Duncan Aviation - Near you to keep you flying
 
 1110 users online  

PAEE Eek Airport
Eek, Alaska, USA

GOING TO EEK?


FAA INFORMATION EFFECTIVE 08 SEPTEMBER 2022

Location

FAA Identifier: EEK
Lat/Long: 60-12-49.3000N 162-02-38.0000W
60-12.821667N 162-02.633333W
60.2136944,-162.0438889
(estimated)
Elevation: 26.5 ft. / 8.1 m (surveyed)
Variation: 11E (2020)
From city: 1 mile W of EEK, AK
Time zone: UTC -8 (UTC -9 during Standard Time)
Zip code: 99578

Airport Operations

Airport use: Open to the public
Activation date: 06/1974
Control tower: no
ARTCC: ANCHORAGE CENTER
FSS: KENAI FLIGHT SERVICE STATION [907-283-7211]
NOTAMs facility: ENA (NOTAM-D service available)
Attendance: UNATNDD
Wind indicator: lighted
Segmented circle: yes
Lights: ACTVT REIL RWY 18, 36; PAPI RWY 18, 36; MIRL RWY 18/36 - CTAF.
Beacon: white-green (lighted land airport)
Operates sunset to sunrise.

Airport Communications

CTAF: 122.8
  • APCH/DEP SVC PRVDD BY ANCHORAGE ARTCC (ZAN) ON 125.2/372.0 (BETHEL RCAG).

Nearby radio navigation aids

VOR radial/distance  VOR name  Freq  Var
BETr177/34.9BETHEL VORTAC114.1014E

 
NDB name  Hdg/Dist  Freq  Var  ID
OSCARVILLE177/35.025111EOSE --- ... .

Airport Services

Airframe service: NONE
Powerplant service: NONE
Bottled oxygen: NONE
Bulk oxygen: NONE

Runway Information

Runway 18/36

Dimensions: 3242 x 60 ft. / 988 x 18 m
Surface: gravel, in good condition
Runway edge lights: medium intensity
GRASS AND BRUSH SURROUNDS RWY LGTS.
RUNWAY 18  RUNWAY 36
Latitude: 60-13.084597N60-12.559118N
Longitude: 162-02.549567W162-02.718668W
Elevation: 25.2 ft.23.1 ft.
Traffic pattern: leftleft
Runway heading: 178 magnetic, 189 true358 magnetic, 009 true
Markings: , in good condition, in good condition
Visual slope indicator: 4-light PAPI on left (3.00 degrees glide path)4-light PAPI on left (3.00 degrees glide path)
Runway end identifier lights: yesyes
Touchdown point: yes, no lightsyes, no lights
Obstructions: 3 ft. brush, 8 ft. from runway, 58 ft. right of centerline, 2:1 slope to clear5 ft. brush, 10 ft. from runway, 60 ft. left and right of centerline, 2:1 slope to clear

Airport Ownership and Management from official FAA records

Ownership: Publicly-owned
Owner: ALASKA DOT&PF CENTRAL REGION
PO BOX 196900
ANCHORAGE, AK 99519-6900
Phone (907) 269-0783
Manager: JOSEPH LARAUX
BOX 505
BETHEL, AK 99559
Phone (907) 543-2498

Airport Operational Statistics

Aircraft operations: avg 38/week *
100% air taxi
* for 12-month period ending 31 December 2020

Additional Remarks

RWY CONDITION NOT MONITORED; RECOMMEND VISUAL INSPECTION PRIOR TO USING.
WX CAMERA AVBL ON INTERNET AT HTTPS://WEATHERCAMS.FAA.GOV
BIRDS INVOF ARPT.
300 FT TOWER APPX 1.1 MILES EAST OF ARPT.
6-8 IN DIPS IN RWY FULL LENGTH.

Instrument Procedures

NOTE: All procedures below are presented as PDF files. If you need a reader for these files, you should download the free Adobe Reader.

NOT FOR NAVIGATION. Please procure official charts for flight.
FAA instrument procedures published for use from 8 September 2022 at 0901Z to 6 October 2022 at 0900Z.

 
IAPs - Instrument Approach Procedures
RNAV (GPS) RWY 18   download (210KB)
RNAV (GPS) RWY 36   download (206KB)
NOTE: Special Take-Off Minimums/Departure Procedures apply   download (393KB)

Other nearby airports with instrument procedures:

PAQH - Quinhagak Airport (28 nm S)
PANA - Napakiak Airport (29 nm N)
PAPK - Napaskiak Airport (30 nm N)
PABE - Bethel Airport (34 nm N)
PFKW - Kwethluk Airport (39 nm NE)
 
Loc | Ops | Rwys | IFR | FBO | Links
Com | Nav | Svcs | Stats | Notes

Crowley Maritime Corporation
 
Area around PAEE (Eek Airport)
 
Road maps at: MapQuest Bing Google
 
Aerial photo
WARNING: Photo may not be current or correct
Aerial photo of PAEE (Eek Airport)
Photo by Security Aviation
Photo taken 20-Dec-2017
looking south over Eek.

Do you have a better or more recent aerial photo of Eek Airport that you would like to share? If so, please send us your photo.

 
Sectional chart

 
Airport distance calculator
Flying to Eek Airport? Find the distance to fly.

From to PAEE

Sunrise and sunset
Times for 29-Sep-2022
 Local
(UTC-8)
 Zulu
(UTC)
Morning civil twilight08:0916:09
Sunrise08:5116:51
Sunset20:2604:26
Evening civil twilight21:0805:08

Current date and time
Zulu (UTC)  30-Sep-2022 00:27:41
Local (UTC-8)  29-Sep-2022 16:27:41
 
METAR
PAQH 
28nm S 
300013Z AUTO 33009KT 10SM OVC015 10/08 A2953 RMK AO2
PANA 
29nm N 
300009Z AUTO 36010G15KT 10SM OVC015 10/07 A2954 RMK AO2 TSNO $
PABE 
35nm N 
292353Z 01014KT 10SM OVC014 10/07 A2954 RMK AO2 SLP004 T01000067 10100 20072 51030
PFKW 
39nm NE 
300015Z AUTO 36009KT 10SM SCT014 BKN021 OVC090 11/08 A2953 RMK AO2
TAF
PABE 
35nm N 
292027Z 2920/3018 36008KT P6SM SCT004 BKN018 OVC060 TEMPO 2920/2922 SCT020 OVC060 FM292200 35009KT P6SM SCT020 OVC060 FM300200 33007KT P6SM SCT015 OVC025 FM301000 VRB04KT 1SM BR BKN003 OVC015
NOTAMs
Click for the latest NOTAMs
NOTAMs are issued by the DoD/FAA and will open in a separate window not controlled by AirNav.

 

 
 

Would you like to see your business listed on this page?

 If your business provides an interesting product or service to pilots, flight crews, aircraft, or users of the Eek Airport, you should consider listing it here.  To start the listing process, click on the button below
 
Add a business
 

Other Pages about Eek Airport

Update a link
 
Copyright © AirNav, LLC. All rights reserved. Privacy Policy  Contact